Cowiche, Washington
Current Conditions -  °F | °C
As of 12:53 AM on Thursday 27 Nov 2014 (Local Time) from KYKM Reporting Station
Haze Haze  
Wind Chill: 31°   Ceiling: Unl
Heat Index: 36°   Visibility: 5mi
Dew Point: 34°   Wind: 6mph
Humidity: 93%   Direction: 290°WNW
Pressure: 29.92"   Gusts: NA
Location:  46.67°N, 120.71°W
Report Text: KYKM 270853Z AUTO 29005KT 5SM BR FEW065 02/01 A2992 RMK AO2 SLP140 T00220011 56008
Loading
Personal Weather Stations






























Interactive Weather Map New forecast layout! Learn more

10-Day Weather Forecast

Advertisements
Track Severe Weather on mobile